Time,TemperatureF,DewpointF,PressureIn,WindDirection,WindDirectionDegrees,WindSpeedMPH,WindSpeedGustMPH,Humidity,HourlyPrecipIn,Conditions,Clouds,dailyrainin,SoftwareType,DateUTC
2013-06-19 00:01:00,62.7,61.8,29.74,North,-999,-999.0,-999.0,96,0.00,,,0.00,tws,2013-06-19 04:01:00,
2013-06-19 00:06:00,62.6,61.7,29.74,North,-999,-999.0,-999.0,96,0.00,,,0.00,tws,2013-06-19 04:06:00,
2013-06-19 00:11:00,62.6,61.7,29.75,North,-999,-999.0,-999.0,97,0.00,,,0.00,tws,2013-06-19 04:11:00,
2013-06-19 00:16:00,62.6,61.7,29.74,North,-999,-999.0,-999.0,97,0.00,,,0.00,tws,2013-06-19 04:16:00,
2013-06-19 00:21:00,62.5,61.7,29.74,North,-999,-999.0,-999.0,97,0.00,,,0.00,tws,2013-06-19 04:21:00,
2013-06-19 00:26:00,62.4,61.6,29.74,North,-999,-999.0,-999.0,97,0.00,,,0.00,tws,2013-06-19 04:26:00,
2013-06-19 00:31:00,62.3,61.4,29.74,North,-999,-999.0,-999.0,97,0.00,,,0.00,tws,2013-06-19 04:31:00,
2013-06-19 00:36:00,62.2,61.5,29.74,North,-999,-999.0,-999.0,97,0.00,,,0.00,tws,2013-06-19 04:36:00,
2013-06-19 00:41:00,62.0,61.3,29.74,North,-999,-999.0,-999.0,97,0.00,,,0.00,tws,2013-06-19 04:41:00,
2013-06-19 00:46:00,61.9,61.1,29.74,North,-999,-999.0,-999.0,97,0.00,,,0.00,tws,2013-06-19 04:46:00,
2013-06-19 00:51:00,61.9,61.1,29.74,North,-999,-999.0,-999.0,97,0.00,,,0.00,tws,2013-06-19 04:51:00,
2013-06-19 00:56:00,61.8,61.1,29.74,North,-999,-999.0,-999.0,97,0.00,,,0.00,tws,2013-06-19 04:56:00,
2013-06-19 01:01:00,61.7,61.0,29.74,North,-999,-999.0,-999.0,97,0.00,,,0.00,tws,2013-06-19 05:01:00,
2013-06-19 01:06:00,61.7,61.0,29.74,North,-999,-999.0,-999.0,97,0.00,,,0.00,tws,2013-06-19 05:06:00,
2013-06-19 01:11:00,61.6,60.9,29.74,North,-999,-999.0,-999.0,97,0.00,,,0.00,tws,2013-06-19 05:11:00,
2013-06-19 01:16:00,61.5,60.8,29.74,North,-999,-999.0,-999.0,97,0.00,,,0.00,tws,2013-06-19 05:16:00,
2013-06-19 01:21:00,61.4,60.6,29.74,North,-999,-999.0,-999.0,97,0.00,,,0.00,tws,2013-06-19 05:21:00,
2013-06-19 01:26:00,61.4,60.6,29.74,North,-999,-999.0,-999.0,97,0.00,,,0.00,tws,2013-06-19 05:26:00,
2013-06-19 01:31:00,61.3,60.6,29.74,North,-999,-999.0,-999.0,97,0.00,,,0.00,tws,2013-06-19 05:31:00,
2013-06-19 01:36:00,61.2,60.5,29.74,North,-999,-999.0,-999.0,97,0.00,,,0.00,tws,2013-06-19 05:36:00,
2013-06-19 01:41:00,61.1,60.4,29.74,North,-999,-999.0,-999.0,97,0.00,,,0.00,tws,2013-06-19 05:41:00,
2013-06-19 01:46:00,61.0,60.3,29.74,North,-999,-999.0,-999.0,97,0.00,,,0.00,tws,2013-06-19 05:46:00,
2013-06-19 01:51:00,60.9,60.3,29.74,North,-999,-999.0,-999.0,97,0.00,,,0.00,tws,2013-06-19 05:51:00,
2013-06-19 01:56:00,60.8,60.1,29.74,North,-999,-999.0,-999.0,97,0.00,,,0.00,tws,2013-06-19 05:56:00,
2013-06-19 02:01:00,60.8,60.2,29.74,North,-999,-999.0,-999.0,97,0.00,,,0.00,tws,2013-06-19 06:01:00,
2013-06-19 02:06:00,60.7,60.0,29.74,North,-999,-999.0,-999.0,97,0.00,,,0.00,tws,2013-06-19 06:06:00,
2013-06-19 02:11:00,60.6,60.0,29.74,North,-999,-999.0,-999.0,97,0.00,,,0.00,tws,2013-06-19 06:11:00,
2013-06-19 02:16:00,60.6,60.0,29.74,North,-999,-999.0,-999.0,97,0.00,,,0.00,tws,2013-06-19 06:16:00,
2013-06-19 02:21:00,60.5,59.8,29.74,North,-999,-999.0,-999.0,97,0.00,,,0.00,tws,2013-06-19 06:21:00,
2013-06-19 02:26:00,60.5,59.8,29.73,North,-999,-999.0,-999.0,97,0.00,,,0.00,tws,2013-06-19 06:26:00,
2013-06-19 02:31:00,60.4,59.7,29.73,North,-999,-999.0,-999.0,97,0.00,,,0.00,tws,2013-06-19 06:31:00,
2013-06-19 02:36:00,60.2,59.6,29.74,North,-999,-999.0,-999.0,97,0.00,,,0.00,tws,2013-06-19 06:36:00,
2013-06-19 02:41:00,60.1,59.4,29.74,North,-999,-999.0,-999.0,97,0.00,,,0.00,tws,2013-06-19 06:41:00,
2013-06-19 02:46:00,59.9,59.3,29.74,North,-999,-999.0,-999.0,97,0.00,,,0.00,tws,2013-06-19 06:46:00,
2013-06-19 02:51:00,59.9,59.3,29.74,North,-999,-999.0,-999.0,97,0.00,,,0.00,tws,2013-06-19 06:51:00,
2013-06-19 02:56:00,59.9,59.4,29.74,North,-999,-999.0,-999.0,98,0.00,,,0.00,tws,2013-06-19 06:56:00,
2013-06-19 03:01:00,59.9,59.3,29.74,North,-999,-999.0,-999.0,98,0.00,,,0.00,tws,2013-06-19 07:01:00,
2013-06-19 03:06:00,59.8,59.2,29.74,North,-999,-999.0,-999.0,97,0.00,,,0.00,tws,2013-06-19 07:06:00,
2013-06-19 03:11:00,59.8,59.2,29.74,North,-999,-999.0,-999.0,97,0.00,,,0.00,tws,2013-06-19 07:11:00,
2013-06-19 03:16:00,59.6,59.0,29.74,North,-999,-999.0,-999.0,98,0.00,,,0.00,tws,2013-06-19 07:16:00,
2013-06-19 03:21:00,59.5,59.0,29.74,North,-999,-999.0,-999.0,98,0.00,,,0.00,tws,2013-06-19 07:21:00,
2013-06-19 03:26:00,59.6,59.0,29.74,North,-999,-999.0,-999.0,97,0.00,,,0.00,tws,2013-06-19 07:26:00,
2013-06-19 03:31:00,59.6,59.1,29.74,North,-999,-999.0,-999.0,98,0.00,,,0.00,tws,2013-06-19 07:31:00,
2013-06-19 03:36:00,59.7,59.3,29.74,North,-999,-999.0,-999.0,98,0.00,,,0.00,tws,2013-06-19 07:36:00,
2013-06-19 03:41:00,59.8,59.3,29.74,North,-999,-999.0,-999.0,98,0.00,,,0.00,tws,2013-06-19 07:41:00,
2013-06-19 03:46:00,59.7,59.2,29.74,North,-999,-999.0,-999.0,98,0.00,,,0.00,tws,2013-06-19 07:46:00,
2013-06-19 03:51:00,59.7,59.1,29.74,North,-999,-999.0,-999.0,98,0.00,,,0.00,tws,2013-06-19 07:51:00,
2013-06-19 03:56:00,59.6,59.0,29.74,North,-999,-999.0,-999.0,98,0.00,,,0.00,tws,2013-06-19 07:56:00,
2013-06-19 04:01:00,59.7,59.1,29.74,North,-999,-999.0,-999.0,98,0.00,,,0.00,tws,2013-06-19 08:01:00,
2013-06-19 04:06:00,59.6,59.2,29.74,North,-999,-999.0,-999.0,98,0.00,,,0.00,tws,2013-06-19 08:06:00,
2013-06-19 04:11:00,59.7,59.1,29.74,North,-999,-999.0,-999.0,98,0.00,,,0.00,tws,2013-06-19 08:11:00,
2013-06-19 04:16:00,59.7,59.2,29.74,North,-999,-999.0,-999.0,98,0.00,,,0.00,tws,2013-06-19 08:16:00,
2013-06-19 04:21:00,59.7,59.3,29.74,North,-999,-999.0,-999.0,98,0.00,,,0.00,tws,2013-06-19 08:21:00,
2013-06-19 04:26:00,59.8,59.4,29.74,North,-999,-999.0,-999.0,98,0.00,,,0.00,tws,2013-06-19 08:26:00,
2013-06-19 04:31:00,59.8,59.3,29.74,North,-999,-999.0,-999.0,98,0.00,,,0.00,tws,2013-06-19 08:31:00,
2013-06-19 04:36:00,59.9,59.4,29.74,North,-999,-999.0,-999.0,98,0.00,,,0.00,tws,2013-06-19 08:36:00,
2013-06-19 04:41:00,60.0,59.4,29.74,North,-999,-999.0,-999.0,98,0.00,,,0.00,tws,2013-06-19 08:41:00,
2013-06-19 04:46:00,60.1,59.6,29.74,North,-999,-999.0,-999.0,98,0.00,,,0.00,tws,2013-06-19 08:46:00,
2013-06-19 04:51:00,60.2,59.6,29.74,North,-999,-999.0,-999.0,97,0.00,,,0.00,tws,2013-06-19 08:51:00,
2013-06-19 04:56:00,60.2,59.7,29.74,North,-999,-999.0,-999.0,98,0.00,,,0.00,tws,2013-06-19 08:56:00,
2013-06-19 05:01:00,60.3,59.7,29.74,North,-999,-999.0,-999.0,98,0.00,,,0.00,tws,2013-06-19 09:01:00,
2013-06-19 05:06:00,60.2,59.7,29.75,North,-999,-999.0,-999.0,98,0.00,,,0.00,tws,2013-06-19 09:06:00,
2013-06-19 05:11:00,60.0,59.5,29.75,North,-999,-999.0,-999.0,97,0.00,,,0.00,tws,2013-06-19 09:11:00,
2013-06-19 05:16:00,59.9,59.4,29.75,North,-999,-999.0,-999.0,98,0.00,,,0.00,tws,2013-06-19 09:16:00,
2013-06-19 05:21:00,59.8,59.2,29.75,North,-999,-999.0,-999.0,98,0.00,,,0.00,tws,2013-06-19 09:21:00,
2013-06-19 05:26:00,59.8,59.2,29.76,North,-999,-999.0,-999.0,97,0.00,,,0.00,tws,2013-06-19 09:26:00,
2013-06-19 05:31:00,59.7,59.2,29.76,North,-999,-999.0,-999.0,98,0.00,,,0.00,tws,2013-06-19 09:31:00,
2013-06-19 05:36:00,59.7,59.1,29.76,North,-999,-999.0,-999.0,97,0.00,,,0.00,tws,2013-06-19 09:36:00,
2013-06-19 05:41:00,59.8,59.2,29.76,North,-999,-999.0,-999.0,98,0.00,,,0.00,tws,2013-06-19 09:41:00,
2013-06-19 05:46:00,59.8,59.3,29.76,North,-999,-999.0,-999.0,98,0.00,,,0.00,tws,2013-06-19 09:46:00,
2013-06-19 05:51:00,59.9,59.3,29.76,North,-999,-999.0,-999.0,97,0.00,,,0.00,tws,2013-06-19 09:51:00,
2013-06-19 05:56:00,59.9,59.4,29.76,North,-999,-999.0,-999.0,98,0.00,,,0.00,tws,2013-06-19 09:56:00,
2013-06-19 06:01:00,60.0,59.5,29.77,North,-999,-999.0,-999.0,98,0.00,,,0.00,tws,2013-06-19 10:01:00,
2013-06-19 06:06:00,60.1,59.6,29.77,North,-999,-999.0,-999.0,98,0.00,,,0.00,tws,2013-06-19 10:06:00,
2013-06-19 06:11:00,60.1,59.5,29.77,North,-999,-999.0,-999.0,98,0.00,,,0.00,tws,2013-06-19 10:11:00,
2013-06-19 06:16:00,59.9,59.3,29.77,North,-999,-999.0,-999.0,98,0.00,,,0.00,tws,2013-06-19 10:16:00,
2013-06-19 06:21:00,59.7,59.1,29.77,North,-999,-999.0,-999.0,97,0.00,,,0.00,tws,2013-06-19 10:21:00,
2013-06-19 06:26:00,59.6,59.0,29.77,North,-999,-999.0,-999.0,98,0.00,,,0.00,tws,2013-06-19 10:26:00,
2013-06-19 06:31:00,59.5,58.9,29.77,North,-999,-999.0,-999.0,97,0.00,,,0.00,tws,2013-06-19 10:31:00,
2013-06-19 06:36:00,59.5,58.8,29.77,North,-999,-999.0,-999.0,97,0.00,,,0.00,tws,2013-06-19 10:36:00,
2013-06-19 06:41:00,59.3,58.8,29.78,North,-999,-999.0,-999.0,98,0.00,,,0.00,tws,2013-06-19 10:41:00,
2013-06-19 06:46:00,59.2,58.6,29.79,North,-999,-999.0,-999.0,97,0.00,,,0.00,tws,2013-06-19 10:46:00,
2013-06-19 06:51:00,59.2,58.6,29.79,North,-999,-999.0,-999.0,97,0.00,,,0.00,tws,2013-06-19 10:51:00,
2013-06-19 06:56:00,59.3,58.8,29.79,North,-999,-999.0,-999.0,98,0.00,,,0.00,tws,2013-06-19 10:56:00,
2013-06-19 07:01:00,59.4,58.8,29.79,North,-999,-999.0,-999.0,97,0.00,,,0.00,tws,2013-06-19 11:01:00,
2013-06-19 07:06:00,59.3,58.8,29.79,North,-999,-999.0,-999.0,98,0.00,,,0.00,tws,2013-06-19 11:06:00,
2013-06-19 07:11:00,59.3,58.8,29.79,North,-999,-999.0,-999.0,98,0.00,,,0.00,tws,2013-06-19 11:11:00,
2013-06-19 07:16:00,59.4,58.8,29.79,North,-999,-999.0,-999.0,97,0.00,,,0.00,tws,2013-06-19 11:16:00,
2013-06-19 07:21:00,59.5,58.8,29.79,North,-999,-999.0,-999.0,97,0.00,,,0.00,tws,2013-06-19 11:21:00,
2013-06-19 07:26:00,59.5,58.9,29.79,North,-999,-999.0,-999.0,97,0.00,,,0.00,tws,2013-06-19 11:26:00,
2013-06-19 07:31:00,59.6,59.1,29.80,North,-999,-999.0,-999.0,98,0.00,,,0.00,tws,2013-06-19 11:31:00,
2013-06-19 07:36:00,59.7,59.1,29.80,North,-999,-999.0,-999.0,97,0.00,,,0.00,tws,2013-06-19 11:36:00,
2013-06-19 07:41:00,59.7,59.1,29.80,North,-999,-999.0,-999.0,97,0.00,,,0.00,tws,2013-06-19 11:41:00,
2013-06-19 07:46:00,59.8,59.2,29.80,North,-999,-999.0,-999.0,97,0.00,,,0.00,tws,2013-06-19 11:46:00,
2013-06-19 07:51:00,59.9,59.2,29.80,North,-999,-999.0,-999.0,97,0.00,,,0.00,tws,2013-06-19 11:51:00,
2013-06-19 07:56:00,59.9,59.3,29.80,North,-999,-999.0,-999.0,97,0.00,,,0.00,tws,2013-06-19 11:56:00,
2013-06-19 08:01:00,59.9,59.3,29.80,North,-999,-999.0,-999.0,97,0.00,,,0.00,tws,2013-06-19 12:01:00,
2013-06-19 08:06:00,60.0,59.3,29.80,North,-999,-999.0,-999.0,97,0.00,,,0.00,tws,2013-06-19 12:06:00,
2013-06-19 08:11:00,60.3,59.6,29.80,North,-999,-999.0,-999.0,97,0.00,,,0.00,tws,2013-06-19 12:11:00,
2013-06-19 08:16:00,60.6,59.9,29.80,North,-999,-999.0,-999.0,97,0.00,,,0.00,tws,2013-06-19 12:16:00,
2013-06-19 08:21:00,60.9,60.2,29.81,North,-999,-999.0,-999.0,97,0.00,,,0.00,tws,2013-06-19 12:21:00,
2013-06-19 08:26:00,61.2,60.5,29.82,North,-999,-999.0,-999.0,97,0.00,,,0.00,tws,2013-06-19 12:26:00,
2013-06-19 08:31:00,61.5,60.7,29.82,North,-999,-999.0,-999.0,97,0.00,,,0.00,tws,2013-06-19 12:31:00,
2013-06-19 08:36:00,61.7,60.7,29.82,North,-999,-999.0,-999.0,96,0.00,,,0.00,tws,2013-06-19 12:36:00,
2013-06-19 08:41:00,61.9,60.9,29.82,North,-999,-999.0,-999.0,96,0.00,,,0.00,tws,2013-06-19 12:41:00,
2013-06-19 08:46:00,62.4,61.4,29.82,North,-999,-999.0,-999.0,96,0.00,,,0.00,tws,2013-06-19 12:46:00,
2013-06-19 08:51:00,63.0,61.9,29.82,North,-999,-999.0,-999.0,96,0.00,,,0.00,tws,2013-06-19 12:51:00,
2013-06-19 08:56:00,63.6,62.6,29.82,North,-999,-999.0,-999.0,96,0.00,,,0.00,tws,2013-06-19 12:56:00,
2013-06-19 09:01:00,64.0,62.8,29.82,North,-999,-999.0,-999.0,96,0.00,,,0.00,tws,2013-06-19 13:01:00,
2013-06-19 09:06:00,64.2,62.9,29.82,North,-999,-999.0,-999.0,95,0.00,,,0.00,tws,2013-06-19 13:06:00,
2013-06-19 09:11:00,64.5,63.0,29.82,North,-999,-999.0,-999.0,94,0.00,,,0.00,tws,2013-06-19 13:11:00,
2013-06-19 09:16:00,64.7,63.1,29.82,North,-999,-999.0,-999.0,94,0.00,,,0.00,tws,2013-06-19 13:16:00,
2013-06-19 09:21:00,64.9,63.2,29.82,North,-999,-999.0,-999.0,94,0.00,,,0.00,tws,2013-06-19 13:21:00,
2013-06-19 09:26:00,64.9,63.3,29.82,North,-999,-999.0,-999.0,94,0.00,,,0.00,tws,2013-06-19 13:26:00,
2013-06-19 09:31:00,65.0,63.0,29.82,North,-999,-999.0,-999.0,93,0.00,,,0.00,tws,2013-06-19 13:31:00,
2013-06-19 09:36:00,65.0,63.0,29.82,North,-999,-999.0,-999.0,93,0.00,,,0.00,tws,2013-06-19 13:36:00,
2013-06-19 09:41:00,65.1,63.0,29.82,North,-999,-999.0,-999.0,92,0.00,,,0.00,tws,2013-06-19 13:41:00,
2013-06-19 09:46:00,65.1,63.1,29.82,North,-999,-999.0,-999.0,93,0.00,,,0.00,tws,2013-06-19 13:46:00,
2013-06-19 09:51:00,65.4,63.4,29.82,North,-999,-999.0,-999.0,93,0.00,,,0.00,tws,2013-06-19 13:51:00,
2013-06-19 09:56:00,65.6,63.3,29.82,North,-999,-999.0,-999.0,92,0.00,,,0.00,tws,2013-06-19 13:56:00,
2013-06-19 10:01:00,65.9,63.7,29.82,North,-999,-999.0,-999.0,92,0.00,,,0.00,tws,2013-06-19 14:01:00,
2013-06-19 10:06:00,66.2,64.1,29.82,North,-999,-999.0,-999.0,92,0.00,,,0.00,tws,2013-06-19 14:06:00,
2013-06-19 10:11:00,66.6,64.4,29.82,North,-999,-999.0,-999.0,92,0.00,,,0.00,tws,2013-06-19 14:11:00,
2013-06-19 10:16:00,66.9,64.6,29.82,North,-999,-999.0,-999.0,92,0.00,,,0.00,tws,2013-06-19 14:16:00,
2013-06-19 10:21:00,67.3,64.6,29.82,North,-999,-999.0,-999.0,90,0.00,,,0.00,tws,2013-06-19 14:21:00,
2013-06-19 10:26:00,67.7,64.8,29.82,North,-999,-999.0,-999.0,90,0.00,,,0.00,tws,2013-06-19 14:26:00,
2013-06-19 10:31:00,68.1,64.7,29.82,North,-999,-999.0,-999.0,88,0.00,,,0.00,tws,2013-06-19 14:31:00,
2013-06-19 10:36:00,68.6,65.2,29.82,North,-999,-999.0,-999.0,88,0.00,,,0.00,tws,2013-06-19 14:36:00,
2013-06-19 10:41:00,68.9,65.5,29.82,North,-999,-999.0,-999.0,88,0.00,,,0.00,tws,2013-06-19 14:41:00,
2013-06-19 10:46:00,69.2,65.8,29.82,North,-999,-999.0,-999.0,88,0.00,,,0.00,tws,2013-06-19 14:46:00,
2013-06-19 10:51:00,69.7,66.1,29.82,North,-999,-999.0,-999.0,88,0.00,,,0.00,tws,2013-06-19 14:51:00,
2013-06-19 10:56:00,70.2,65.7,29.82,North,-999,-999.0,-999.0,85,0.00,,,0.00,tws,2013-06-19 14:56:00,
2013-06-19 11:01:00,70.7,65.5,29.82,North,-999,-999.0,-999.0,83,0.00,,,0.00,tws,2013-06-19 15:01:00,
2013-06-19 11:06:00,71.1,65.6,29.82,North,-999,-999.0,-999.0,82,0.00,,,0.00,tws,2013-06-19 15:06:00,
2013-06-19 11:11:00,71.2,65.4,29.82,North,-999,-999.0,-999.0,81,0.00,,,0.00,tws,2013-06-19 15:11:00,
2013-06-19 11:16:00,71.2,65.4,29.82,North,-999,-999.0,-999.0,81,0.00,,,0.00,tws,2013-06-19 15:16:00,
2013-06-19 11:21:00,71.2,65.3,29.82,North,-999,-999.0,-999.0,81,0.00,,,0.00,tws,2013-06-19 15:21:00,
2013-06-19 11:26:00,71.3,65.0,29.82,North,-999,-999.0,-999.0,80,0.00,,,0.00,tws,2013-06-19 15:26:00,
2013-06-19 11:31:00,71.5,65.4,29.83,North,-999,-999.0,-999.0,80,0.00,,,0.00,tws,2013-06-19 15:31:00,
2013-06-19 11:36:00,71.7,65.9,29.83,North,-999,-999.0,-999.0,81,0.00,,,0.00,tws,2013-06-19 15:36:00,
2013-06-19 11:41:00,71.8,65.7,29.83,North,-999,-999.0,-999.0,80,0.00,,,0.00,tws,2013-06-19 15:41:00,
2013-06-19 11:46:00,71.9,65.9,29.83,North,-999,-999.0,-999.0,81,0.00,,,0.00,tws,2013-06-19 15:46:00,
2013-06-19 11:51:00,71.9,65.5,29.83,North,-999,-999.0,-999.0,79,0.00,,,0.00,tws,2013-06-19 15:51:00,
2013-06-19 11:56:00,72.0,64.6,29.83,North,-999,-999.0,-999.0,77,0.00,,,0.00,tws,2013-06-19 15:56:00,
2013-06-19 12:01:00,72.1,65.5,29.83,North,-999,-999.0,-999.0,79,0.00,,,0.00,tws,2013-06-19 16:01:00,
2013-06-19 12:06:00,72.3,65.8,29.83,North,-999,-999.0,-999.0,79,0.00,,,0.00,tws,2013-06-19 16:06:00,
2013-06-19 12:11:00,72.4,65.4,29.83,North,-999,-999.0,-999.0,78,0.00,,,0.00,tws,2013-06-19 16:11:00,
2013-06-19 12:16:00,72.5,66.0,29.83,North,-999,-999.0,-999.0,79,0.00,,,0.00,tws,2013-06-19 16:16:00,
2013-06-19 12:21:00,72.6,66.3,29.83,North,-999,-999.0,-999.0,80,0.00,,,0.00,tws,2013-06-19 16:21:00,
2013-06-19 12:27:00,72.6,65.6,29.83,North,-999,-999.0,-999.0,78,0.00,,,0.00,tws,2013-06-19 16:27:00,
2013-06-19 12:36:00,72.5,65.7,29.83,North,-999,-999.0,-999.0,79,0.00,,,0.00,tws,2013-06-19 16:36:00,
2013-06-19 12:41:00,72.6,65.2,29.83,North,-999,-999.0,-999.0,77,0.00,,,0.00,tws,2013-06-19 16:41:00,
2013-06-19 12:46:00,72.8,65.8,29.83,North,-999,-999.0,-999.0,78,0.00,,,0.00,tws,2013-06-19 16:46:00,
2013-06-19 12:51:00,72.9,64.9,29.83,North,-999,-999.0,-999.0,75,0.00,,,0.00,tws,2013-06-19 16:51:00,
2013-06-19 12:56:00,73.0,66.1,29.83,North,-999,-999.0,-999.0,78,0.00,,,0.00,tws,2013-06-19 16:56:00,
2013-06-19 13:01:00,73.2,66.4,29.83,North,-999,-999.0,-999.0,79,0.00,,,0.00,tws,2013-06-19 17:01:00,
2013-06-19 13:06:00,73.3,66.3,29.83,North,-999,-999.0,-999.0,78,0.00,,,0.00,tws,2013-06-19 17:06:00,
2013-06-19 13:11:00,73.4,66.7,29.83,North,-999,-999.0,-999.0,79,0.00,,,0.00,tws,2013-06-19 17:11:00,
2013-06-19 13:16:00,73.6,67.0,29.83,North,-999,-999.0,-999.0,79,0.00,,,0.00,tws,2013-06-19 17:16:00,
2013-06-19 13:21:00,73.8,67.2,29.84,North,-999,-999.0,-999.0,79,0.00,,,0.00,tws,2013-06-19 17:21:00,
2013-06-19 13:26:00,74.0,67.2,29.84,North,-999,-999.0,-999.0,79,0.00,,,0.00,tws,2013-06-19 17:26:00,
2013-06-19 13:31:00,74.1,66.9,29.83,North,-999,-999.0,-999.0,78,0.00,,,0.00,tws,2013-06-19 17:31:00,
2013-06-19 13:36:00,74.1,66.8,29.83,North,-999,-999.0,-999.0,77,0.00,,,0.00,tws,2013-06-19 17:36:00,
2013-06-19 13:41:00,74.0,67.3,29.83,North,-999,-999.0,-999.0,79,0.00,,,0.00,tws,2013-06-19 17:41:00,
2013-06-19 13:46:00,74.0,67.5,29.84,North,-999,-999.0,-999.0,80,0.00,,,0.00,tws,2013-06-19 17:46:00,
2013-06-19 13:51:00,74.0,67.3,29.83,North,-999,-999.0,-999.0,79,0.00,,,0.00,tws,2013-06-19 17:51:00,
2013-06-19 13:56:00,74.0,67.2,29.84,North,-999,-999.0,-999.0,79,0.00,,,0.00,tws,2013-06-19 17:56:00,
2013-06-19 14:01:00,74.0,67.6,29.84,North,-999,-999.0,-999.0,80,0.00,,,0.00,tws,2013-06-19 18:01:00,
2013-06-19 14:06:00,74.2,67.6,29.84,North,-999,-999.0,-999.0,79,0.00,,,0.00,tws,2013-06-19 18:06:00,
2013-06-19 14:11:00,74.1,67.2,29.84,North,-999,-999.0,-999.0,78,0.00,,,0.00,tws,2013-06-19 18:11:00,
2013-06-19 14:16:00,74.1,67.3,29.83,North,-999,-999.0,-999.0,79,0.00,,,0.00,tws,2013-06-19 18:16:00,
2013-06-19 14:21:00,74.1,66.9,29.83,North,-999,-999.0,-999.0,77,0.00,,,0.00,tws,2013-06-19 18:21:00,
2013-06-19 14:26:00,74.0,66.7,29.83,North,-999,-999.0,-999.0,77,0.00,,,0.00,tws,2013-06-19 18:26:00,
2013-06-19 14:31:00,74.0,67.3,29.83,North,-999,-999.0,-999.0,79,0.00,,,0.00,tws,2013-06-19 18:31:00,
2013-06-19 14:36:00,74.2,67.2,29.83,North,-999,-999.0,-999.0,78,0.00,,,0.00,tws,2013-06-19 18:36:00,
2013-06-19 14:41:00,74.5,67.1,29.83,North,-999,-999.0,-999.0,77,0.00,,,0.00,tws,2013-06-19 18:41:00,
2013-06-19 14:46:00,74.7,67.5,29.83,North,-999,-999.0,-999.0,78,0.00,,,0.00,tws,2013-06-19 18:46:00,
2013-06-19 14:51:00,74.8,67.7,29.83,North,-999,-999.0,-999.0,78,0.00,,,0.00,tws,2013-06-19 18:51:00,
2013-06-19 14:56:00,74.8,67.1,29.83,North,-999,-999.0,-999.0,76,0.00,,,0.00,tws,2013-06-19 18:56:00,
2013-06-19 15:01:00,74.9,66.6,29.83,North,-999,-999.0,-999.0,75,0.00,,,0.00,tws,2013-06-19 19:01:00,
2013-06-19 15:06:00,74.9,67.0,29.83,North,-999,-999.0,-999.0,76,0.00,,,0.00,tws,2013-06-19 19:06:00,
2013-06-19 15:11:00,75.0,67.0,29.82,North,-999,-999.0,-999.0,75,0.00,,,0.00,tws,2013-06-19 19:11:00,
2013-06-19 15:16:00,75.1,66.7,29.83,North,-999,-999.0,-999.0,74,0.00,,,0.00,tws,2013-06-19 19:16:00,
2013-06-19 15:22:00,74.9,66.9,29.82,North,-999,-999.0,-999.0,75,0.00,,,0.00,tws,2013-06-19 19:22:00,
2013-06-19 15:27:00,74.6,66.6,29.82,North,-999,-999.0,-999.0,75,0.00,,,0.00,tws,2013-06-19 19:27:00,
2013-06-19 15:31:00,74.2,66.6,29.83,North,-999,-999.0,-999.0,76,0.00,,,0.00,tws,2013-06-19 19:31:00,
2013-06-19 15:36:00,73.8,66.7,29.82,North,-999,-999.0,-999.0,78,0.00,,,0.00,tws,2013-06-19 19:36:00,
2013-06-19 15:41:00,73.6,66.6,29.82,North,-999,-999.0,-999.0,78,0.00,,,0.00,tws,2013-06-19 19:41:00,
2013-06-19 15:46:00,73.6,66.7,29.82,North,-999,-999.0,-999.0,78,0.00,,,0.00,tws,2013-06-19 19:46:00,
2013-06-19 15:51:00,73.6,66.6,29.82,North,-999,-999.0,-999.0,78,0.00,,,0.00,tws,2013-06-19 19:51:00,
2013-06-19 15:56:00,73.7,66.6,29.82,North,-999,-999.0,-999.0,78,0.00,,,0.00,tws,2013-06-19 19:56:00,
2013-06-19 16:01:00,73.9,66.1,29.82,North,-999,-999.0,-999.0,76,0.00,,,0.00,tws,2013-06-19 20:01:00,
2013-06-19 16:06:00,73.9,66.1,29.82,North,-999,-999.0,-999.0,76,0.00,,,0.00,tws,2013-06-19 20:06:00,
2013-06-19 16:11:00,73.9,66.2,29.82,North,-999,-999.0,-999.0,76,0.00,,,0.00,tws,2013-06-19 20:11:00,
2013-06-19 16:16:00,73.8,66.1,29.82,North,-999,-999.0,-999.0,76,0.00,,,0.00,tws,2013-06-19 20:16:00,
2013-06-19 16:21:00,73.9,66.6,29.83,North,-999,-999.0,-999.0,77,0.00,,,0.00,tws,2013-06-19 20:21:00,
2013-06-19 16:26:00,73.7,65.9,29.83,North,-999,-999.0,-999.0,76,0.00,,,0.00,tws,2013-06-19 20:26:00,
2013-06-19 16:32:00,73.4,65.2,29.82,North,-999,-999.0,-999.0,75,0.00,,,0.00,tws,2013-06-19 20:32:00,
2013-06-19 16:36:00,73.1,65.9,29.83,North,-999,-999.0,-999.0,77,0.00,,,0.00,tws,2013-06-19 20:36:00,
2013-06-19 16:41:00,73.0,64.9,29.83,North,-999,-999.0,-999.0,75,0.00,,,0.00,tws,2013-06-19 20:41:00,
2013-06-19 16:46:00,72.9,65.1,29.83,North,-999,-999.0,-999.0,76,0.00,,,0.00,tws,2013-06-19 20:46:00,
2013-06-19 16:51:00,72.7,65.5,29.83,North,-999,-999.0,-999.0,77,0.00,,,0.00,tws,2013-06-19 20:51:00,
2013-06-19 16:56:00,72.5,65.0,29.83,North,-999,-999.0,-999.0,76,0.00,,,0.00,tws,2013-06-19 20:56:00,
2013-06-19 17:01:00,72.3,64.9,29.83,North,-999,-999.0,-999.0,77,0.00,,,0.00,tws,2013-06-19 21:01:00,
2013-06-19 17:06:00,72.1,65.2,29.83,North,-999,-999.0,-999.0,78,0.00,,,0.00,tws,2013-06-19 21:06:00,
2013-06-19 17:11:00,72.0,65.1,29.83,North,-999,-999.0,-999.0,78,0.00,,,0.00,tws,2013-06-19 21:11:00,
2013-06-19 17:16:00,72.2,65.5,29.83,North,-999,-999.0,-999.0,79,0.00,,,0.00,tws,2013-06-19 21:16:00,
2013-06-19 17:22:00,72.3,65.6,29.83,North,-999,-999.0,-999.0,79,0.00,,,0.00,tws,2013-06-19 21:22:00,
2013-06-19 17:27:00,72.2,65.2,29.83,North,-999,-999.0,-999.0,78,0.00,,,0.00,tws,2013-06-19 21:27:00,
2013-06-19 17:36:00,72.1,64.5,29.83,North,-999,-999.0,-999.0,76,0.00,,,0.00,tws,2013-06-19 21:36:00,
2013-06-19 17:41:00,72.5,64.1,29.83,North,-999,-999.0,-999.0,74,0.00,,,0.00,tws,2013-06-19 21:41:00,
2013-06-19 17:47:00,73.1,64.5,29.83,North,-999,-999.0,-999.0,74,0.00,,,0.00,tws,2013-06-19 21:47:00,
2013-06-19 17:51:00,73.6,65.6,29.83,North,-999,-999.0,-999.0,75,0.00,,,0.00,tws,2013-06-19 21:51:00,
2013-06-19 17:56:00,74.3,64.3,29.83,North,-999,-999.0,-999.0,70,0.00,,,0.00,tws,2013-06-19 21:56:00,
2013-06-19 18:01:00,74.6,64.7,29.83,North,-999,-999.0,-999.0,70,0.00,,,0.00,tws,2013-06-19 22:01:00,
2013-06-19 18:06:00,74.5,63.6,29.83,North,-999,-999.0,-999.0,68,0.00,,,0.00,tws,2013-06-19 22:06:00,
2013-06-19 18:11:00,74.1,64.4,29.83,North,-999,-999.0,-999.0,71,0.00,,,0.00,tws,2013-06-19 22:11:00,
2013-06-19 18:16:00,74.0,64.5,29.83,North,-999,-999.0,-999.0,71,0.00,,,0.00,tws,2013-06-19 22:16:00,
2013-06-19 18:21:00,74.1,64.3,29.83,North,-999,-999.0,-999.0,71,0.00,,,0.00,tws,2013-06-19 22:21:00,
2013-06-19 18:26:00,74.0,64.3,29.83,North,-999,-999.0,-999.0,71,0.00,,,0.00,tws,2013-06-19 22:26:00,
2013-06-19 18:31:00,73.6,63.6,29.84,North,-999,-999.0,-999.0,70,0.00,,,0.00,tws,2013-06-19 22:31:00,
2013-06-19 18:36:00,73.2,64.2,29.84,North,-999,-999.0,-999.0,73,0.00,,,0.00,tws,2013-06-19 22:36:00,
2013-06-19 18:41:00,72.7,64.5,29.84,North,-999,-999.0,-999.0,74,0.00,,,0.00,tws,2013-06-19 22:41:00,
2013-06-19 18:46:00,72.5,64.4,29.84,North,-999,-999.0,-999.0,75,0.00,,,0.00,tws,2013-06-19 22:46:00,
2013-06-19 18:51:00,72.4,64.4,29.84,North,-999,-999.0,-999.0,75,0.00,,,0.00,tws,2013-06-19 22:51:00,
2013-06-19 18:57:00,72.3,64.5,29.84,North,-999,-999.0,-999.0,76,0.00,,,0.00,tws,2013-06-19 22:57:00,
2013-06-19 19:01:00,72.2,64.4,29.84,North,-999,-999.0,-999.0,76,0.00,,,0.00,tws,2013-06-19 23:01:00,
2013-06-19 19:06:00,72.1,64.6,29.84,North,-999,-999.0,-999.0,77,0.00,,,0.00,tws,2013-06-19 23:06:00,
2013-06-19 19:11:00,71.9,64.7,29.84,North,-999,-999.0,-999.0,77,0.00,,,0.00,tws,2013-06-19 23:11:00,
2013-06-19 19:16:00,71.6,64.4,29.85,North,-999,-999.0,-999.0,77,0.00,,,0.00,tws,2013-06-19 23:16:00,
2013-06-19 19:21:00,71.3,64.4,29.86,North,-999,-999.0,-999.0,78,0.00,,,0.00,tws,2013-06-19 23:21:00,
2013-06-19 19:26:00,71.0,64.4,29.85,North,-999,-999.0,-999.0,79,0.00,,,0.00,tws,2013-06-19 23:26:00,
2013-06-19 19:32:00,70.7,64.4,29.85,North,-999,-999.0,-999.0,80,0.00,,,0.00,tws,2013-06-19 23:32:00,
2013-06-19 19:36:00,70.5,65.0,29.86,North,-999,-999.0,-999.0,82,0.00,,,0.00,tws,2013-06-19 23:36:00,
2013-06-19 19:41:00,70.3,65.3,29.86,North,-999,-999.0,-999.0,84,0.00,,,0.00,tws,2013-06-19 23:41:00,
2013-06-19 19:46:00,70.1,65.3,29.86,North,-999,-999.0,-999.0,84,0.00,,,0.00,tws,2013-06-19 23:46:00,
2013-06-19 19:51:00,69.8,65.4,29.86,North,-999,-999.0,-999.0,85,0.00,,,0.00,tws,2013-06-19 23:51:00,
2013-06-19 19:57:00,69.4,66.1,29.86,North,-999,-999.0,-999.0,89,0.00,,,0.00,tws,2013-06-19 23:57:00,
2013-06-19 20:01:00,68.9,66.2,29.86,North,-999,-999.0,-999.0,91,0.12,,,0.01,tws,2013-06-20 00:01:00,
2013-06-19 20:06:00,68.4,65.9,29.87,North,-999,-999.0,-999.0,91,0.00,,,0.01,tws,2013-06-20 00:06:00,
2013-06-19 20:11:00,68.0,66.0,29.87,North,-999,-999.0,-999.0,93,0.12,,,0.02,tws,2013-06-20 00:11:00,
2013-06-19 20:16:00,67.6,66.1,29.87,North,-999,-999.0,-999.0,94,0.12,,,0.03,tws,2013-06-20 00:16:00,
2013-06-19 20:22:00,67.2,65.9,29.87,North,-999,-999.0,-999.0,95,0.12,,,0.04,tws,2013-06-20 00:22:00,
2013-06-19 20:26:00,66.9,65.6,29.87,North,-999,-999.0,-999.0,95,0.24,,,0.06,tws,2013-06-20 00:26:00,
2013-06-19 20:32:00,66.5,65.4,29.87,North,-999,-999.0,-999.0,96,0.12,,,0.07,tws,2013-06-20 00:32:00,
2013-06-19 20:36:00,66.2,65.0,29.87,North,-999,-999.0,-999.0,95,0.00,,,0.07,tws,2013-06-20 00:36:00,
2013-06-19 20:42:00,65.8,64.7,29.87,North,-999,-999.0,-999.0,96,0.12,,,0.08,tws,2013-06-20 00:42:00,
2013-06-19 20:46:00,65.7,64.6,29.87,North,-999,-999.0,-999.0,96,0.00,,,0.08,tws,2013-06-20 00:46:00,
2013-06-19 20:51:00,65.5,64.5,29.87,North,-999,-999.0,-999.0,96,0.00,,,0.08,tws,2013-06-20 00:51:00,
2013-06-19 20:56:00,65.4,64.5,29.87,North,-999,-999.0,-999.0,96,0.00,,,0.08,tws,2013-06-20 00:56:00,
2013-06-19 21:01:00,65.3,64.4,29.88,North,-999,-999.0,-999.0,96,0.12,,,0.09,tws,2013-06-20 01:01:00,
2013-06-19 21:07:00,65.3,64.3,29.88,North,-999,-999.0,-999.0,96,0.00,,,0.09,tws,2013-06-20 01:07:00,
2013-06-19 21:11:00,65.3,64.3,29.88,North,-999,-999.0,-999.0,96,0.00,,,0.09,tws,2013-06-20 01:11:00,
2013-06-19 21:17:00,65.2,64.4,29.89,North,-999,-999.0,-999.0,97,0.00,,,0.09,tws,2013-06-20 01:17:00,
2013-06-19 21:21:00,65.3,64.4,29.89,North,-999,-999.0,-999.0,96,0.00,,,0.09,tws,2013-06-20 01:21:00,
2013-06-19 21:26:00,65.3,64.4,29.88,North,-999,-999.0,-999.0,96,0.00,,,0.09,tws,2013-06-20 01:26:00,
2013-06-19 21:32:00,65.3,64.5,29.89,North,-999,-999.0,-999.0,97,0.00,,,0.09,tws,2013-06-20 01:32:00,
2013-06-19 21:36:00,65.2,64.4,29.89,North,-999,-999.0,-999.0,97,0.00,,,0.09,tws,2013-06-20 01:36:00,
2013-06-19 21:41:00,65.2,64.4,29.89,North,-999,-999.0,-999.0,97,0.00,,,0.09,tws,2013-06-20 01:41:00,
2013-06-19 21:47:00,65.1,64.4,29.89,North,-999,-999.0,-999.0,97,0.00,,,0.09,tws,2013-06-20 01:47:00,
2013-06-19 21:51:00,65.2,64.4,29.90,North,-999,-999.0,-999.0,97,0.00,,,0.09,tws,2013-06-20 01:51:00,
2013-06-19 21:57:00,65.2,64.4,29.90,North,-999,-999.0,-999.0,97,0.00,,,0.09,tws,2013-06-20 01:57:00,
2013-06-19 22:02:00,65.2,64.4,29.90,North,-999,-999.0,-999.0,97,0.00,,,0.09,tws,2013-06-20 02:02:00,
2013-06-19 22:06:00,65.2,64.4,29.90,North,-999,-999.0,-999.0,97,0.00,,,0.09,tws,2013-06-20 02:06:00,
2013-06-19 22:12:00,65.2,64.5,29.90,North,-999,-999.0,-999.0,97,0.00,,,0.09,tws,2013-06-20 02:12:00,
2013-06-19 22:16:00,65.2,64.5,29.91,North,-999,-999.0,-999.0,97,0.00,,,0.09,tws,2013-06-20 02:16:00,
2013-06-19 22:22:00,65.2,64.4,29.92,North,-999,-999.0,-999.0,97,0.00,,,0.09,tws,2013-06-20 02:22:00,
2013-06-19 22:26:00,65.2,64.5,29.91,North,-999,-999.0,-999.0,97,0.00,,,0.09,tws,2013-06-20 02:26:00,
2013-06-19 22:31:00,65.2,64.6,29.92,North,-999,-999.0,-999.0,97,0.00,,,0.09,tws,2013-06-20 02:31:00,
2013-06-19 22:37:00,65.2,64.5,29.92,North,-999,-999.0,-999.0,97,0.00,,,0.09,tws,2013-06-20 02:37:00,
2013-06-19 22:41:00,65.3,64.5,29.92,North,-999,-999.0,-999.0,97,0.00,,,0.09,tws,2013-06-20 02:41:00,
2013-06-19 22:47:00,65.2,64.5,29.92,North,-999,-999.0,-999.0,97,0.00,,,0.09,tws,2013-06-20 02:47:00,
2013-06-19 22:51:00,65.2,64.5,29.92,North,-999,-999.0,-999.0,97,0.00,,,0.09,tws,2013-06-20 02:51:00,
2013-06-19 22:56:00,65.2,64.5,29.92,North,-999,-999.0,-999.0,97,0.00,,,0.09,tws,2013-06-20 02:56:00,
2013-06-19 23:02:00,65.1,64.4,29.93,North,-999,-999.0,-999.0,97,0.00,,,0.09,tws,2013-06-20 03:02:00,
2013-06-19 23:06:00,65.1,64.5,29.93,North,-999,-999.0,-999.0,97,0.00,,,0.09,tws,2013-06-20 03:06:00,
2013-06-19 23:12:00,65.0,64.3,29.93,North,-999,-999.0,-999.0,97,0.00,,,0.09,tws,2013-06-20 03:12:00,
2013-06-19 23:16:00,64.9,64.2,29.93,North,-999,-999.0,-999.0,97,0.00,,,0.09,tws,2013-06-20 03:16:00,
2013-06-19 23:21:00,64.9,64.2,29.92,North,-999,-999.0,-999.0,97,0.00,,,0.09,tws,2013-06-20 03:21:00,
2013-06-19 23:27:00,64.9,64.2,29.92,North,-999,-999.0,-999.0,97,0.00,,,0.09,tws,2013-06-20 03:27:00,
2013-06-19 23:31:00,64.8,64.2,29.92,North,-999,-999.0,-999.0,97,0.00,,,0.09,tws,2013-06-20 03:31:00,
2013-06-19 23:37:00,64.8,64.1,29.93,North,-999,-999.0,-999.0,97,0.00,,,0.09,tws,2013-06-20 03:37:00,
2013-06-19 23:41:00,64.8,64.1,29.93,North,-999,-999.0,-999.0,97,0.00,,,0.09,tws,2013-06-20 03:41:00,
2013-06-19 23:46:00,64.7,64.0,29.93,North,-999,-999.0,-999.0,97,0.00,,,0.09,tws,2013-06-20 03:46:00,
2013-06-19 23:52:00,64.6,63.9,29.93,North,-999,-999.0,-999.0,97,0.00,,,0.09,tws,2013-06-20 03:52:00,
2013-06-19 23:56:00,64.4,63.8,29.93,North,-999,-999.0,-999.0,97,0.00,,,0.09,tws,2013-06-20 03:56:00,